Time;durP1;ratioP1;P1;durP2;ratioP2;P2;SDS_P1;SDS_P2;PMS_P1;PMS_P2;Temp;Humidity;BMP_temperature;BMP_pressure;BME280_temperature;BME280_humidity;BME280_pressure;Samples;Min_cycle;Max_cycle;Signal;HPM_P1;HPM_P2
2023/08/05 00:01:24;;;;;;;6.68;5.90;;;21.70;99.90;;;;;;5096278;28;20595;-58
2023/08/05 00:03:50;;;;;;;8.13;5.97;;;21.70;99.90;;;;;;5096548;28;20035;-58
2023/08/05 00:06:16;;;;;;;9.25;6.75;;;21.80;99.90;;;;;;5096457;28;20036;-58
2023/08/05 00:08:42;;;;;;;12.40;7.47;;;21.80;99.90;;;;;;5096282;28;20102;-58
2023/08/05 00:11:07;;;;;;;8.35;6.28;;;21.70;99.90;;;;;;5096317;28;20043;-58
2023/08/05 00:13:34;;;;;;;7.43;6.68;;;21.80;99.90;;;;;;5096130;28;20028;-58
2023/08/05 00:16:01;;;;;;;8.00;6.00;;;21.80;99.90;;;;;;5096224;28;20464;-58
2023/08/05 00:18:27;;;;;;;10.27;7.63;;;21.80;99.90;;;;;;5078073;28;20107;-58
2023/08/05 00:20:53;;;;;;;9.77;6.85;;;21.70;99.90;;;;;;5096111;28;20477;-58
2023/08/05 00:23:19;;;;;;;12.30;7.15;;;21.70;99.90;;;;;;5095862;28;20042;-58
2023/08/05 00:25:45;;;;;;;8.38;6.72;;;21.60;99.90;;;;;;5096106;28;20067;-58
2023/08/05 00:28:11;;;;;;;9.68;7.25;;;21.60;99.90;;;;;;5095830;28;20418;-58
2023/08/05 00:30:38;;;;;;;9.00;7.07;;;21.50;99.90;;;;;;5077891;28;20345;-58
2023/08/05 00:33:05;;;;;;;10.50;7.53;;;21.60;99.90;;;;;;5096001;28;20020;-58
2023/08/05 00:35:32;;;;;;;9.25;6.93;;;21.70;99.90;;;;;;5077643;28;20032;-58
2023/08/05 00:37:58;;;;;;;10.52;7.03;;;21.60;99.90;;;;;;5095836;28;20161;-58
2023/08/05 00:40:24;;;;;;;7.80;6.47;;;21.60;99.90;;;;;;5096266;28;20574;-58
2023/08/05 00:42:50;;;;;;;8.88;6.43;;;21.60;99.90;;;;;;5095544;28;20027;-58
2023/08/05 00:45:16;;;;;;;9.65;6.72;;;21.60;99.90;;;;;;5077389;28;20114;-58
2023/08/05 00:47:42;;;;;;;8.00;6.80;;;21.60;99.90;;;;;;5060975;28;20028;-58
2023/08/05 00:50:09;;;;;;;9.57;7.00;;;21.60;99.90;;;;;;5095517;28;20550;-58
2023/08/05 00:52:36;;;;;;;11.23;7.10;;;21.50;99.90;;;;;;5095597;28;20036;-58
2023/08/05 00:55:02;;;;;;;8.15;6.95;;;21.60;99.90;;;;;;5077490;28;20036;-58
2023/08/05 00:57:28;;;;;;;9.75;7.38;;;21.60;99.90;;;;;;5095412;28;20028;-58
2023/08/05 00:59:54;;;;;;;9.27;7.20;;;21.60;99.90;;;;;;5095390;28;20036;-58
2023/08/05 01:02:20;;;;;;;8.93;7.22;;;21.60;99.90;;;;;;5077243;28;20070;-58
2023/08/05 01:04:46;;;;;;;10.98;6.72;;;21.60;99.90;;;;;;5068608;28;20052;-58
2023/08/05 01:07:13;;;;;;;11.60;7.13;;;21.60;99.90;;;;;;5074943;28;20028;-58
2023/08/05 01:09:39;;;;;;;10.77;7.68;;;21.60;99.90;;;;;;5057052;28;20040;-58
2023/08/05 01:12:06;;;;;;;7.72;6.80;;;21.50;99.90;;;;;;5056792;28;20032;-58
2023/08/05 01:14:32;;;;;;;12.60;7.88;;;21.50;99.90;;;;;;5074930;28;20532;-58
2023/08/05 01:16:58;;;;;;;10.40;7.80;;;21.50;99.90;;;;;;5074668;28;20024;-58
2023/08/05 01:19:26;;;;;;;9.20;6.72;;;21.60;99.90;;;;;;5074913;28;20086;-58
2023/08/05 01:22:26;;;;;;;11.30;7.25;;;21.60;99.90;;;;;;5074935;28;20031;-58
2023/08/05 01:25:02;;;;;;;10.40;6.95;;;21.60;99.90;;;;;;5074771;28;20031;-58
2023/08/05 01:27:29;;;;;;;12.25;7.30;;;21.70;99.90;;;;;;5056599;28;20032;-58
2023/08/05 01:29:55;;;;;;;10.52;7.07;;;21.60;99.90;;;;;;5074619;28;20033;-58
2023/08/05 01:32:22;;;;;;;8.85;7.22;;;21.60;99.90;;;;;;5075160;28;20092;-58
2023/08/05 01:34:49;;;;;;;12.82;7.75;;;21.60;99.90;;;;;;5056654;28;20032;-58
2023/08/05 01:37:17;;;;;;;8.85;7.15;;;21.60;99.90;;;;;;5056646;28;20028;-58
2023/08/05 01:39:43;;;;;;;10.75;7.13;;;21.50;99.90;;;;;;5074383;28;20024;-58
2023/08/05 01:42:09;;;;;;;11.80;7.57;;;21.50;99.90;;;;;;5074455;28;20029;-58
2023/08/05 01:44:35;;;;;;;10.48;6.88;;;21.50;99.90;;;;;;5074846;28;20032;-58
2023/08/05 01:47:01;;;;;;;10.88;7.43;;;21.50;99.90;;;;;;5074459;28;20032;-58
2023/08/05 01:49:27;;;;;;;10.05;7.32;;;21.40;99.90;;;;;;5056185;28;20039;-58
2023/08/05 01:51:53;;;;;;;9.77;6.70;;;21.50;99.90;;;;;;5074355;28;20031;-58
2023/08/05 01:54:20;;;;;;;8.38;6.40;;;21.50;99.90;;;;;;5074433;28;20028;-58
2023/08/05 01:56:46;;;;;;;8.25;6.13;;;21.40;99.90;;;;;;5056127;28;20044;-58
2023/08/05 01:59:11;;;;;;;8.48;6.68;;;21.40;99.90;;;;;;5056185;28;20033;-58
2023/08/05 02:01:47;;;;;;;10.27;7.00;;;21.40;99.90;;;;;;5056366;28;20489;-58
2023/08/05 02:04:14;;;;;;;15.55;9.30;;;21.40;99.90;;;;;;5059719;28;20044;-58
2023/08/05 02:06:40;;;;;;;14.55;9.20;;;21.40;99.90;;;;;;5076507;28;20085;-58
2023/08/05 02:09:07;;;;;;;13.40;7.88;;;21.40;99.90;;;;;;5076221;28;20040;-58
2023/08/05 02:11:34;;;;;;;12.20;7.82;;;21.40;99.90;;;;;;5094306;28;20028;-58
2023/08/05 02:14:00;;;;;;;14.98;8.13;;;21.40;99.90;;;;;;5076260;28;20035;-58
2023/08/05 02:16:26;;;;;;;14.95;10.55;;;21.40;99.90;;;;;;5094401;28;20102;-58
2023/08/05 02:18:52;;;;;;;13.85;9.38;;;21.40;99.90;;;;;;5094441;28;20552;-58
2023/08/05 02:21:19;;;;;;;14.88;9.63;;;21.40;99.90;;;;;;5076293;28;20385;-58
2023/08/05 02:23:45;;;;;;;13.98;9.82;;;21.40;99.90;;;;;;5094170;28;20111;-58
2023/08/05 02:26:10;;;;;;;15.23;9.38;;;21.30;99.90;;;;;;5076177;28;20104;-58
2023/08/05 02:28:37;;;;;;;11.70;8.35;;;21.40;99.90;;;;;;5094043;28;20040;-58
2023/08/05 02:31:03;;;;;;;13.32;8.40;;;21.40;99.90;;;;;;5076164;28;20427;-58
2023/08/05 02:33:28;;;;;;;11.45;7.47;;;21.40;99.90;;;;;;5094148;28;20020;-58
2023/08/05 02:36:01;;;;;;;12.65;6.90;;;21.30;99.90;;;;;;5094176;28;20028;-58
2023/08/05 02:38:27;;;;;;;9.50;6.97;;;21.30;99.90;;;;;;5075854;28;20032;-58
2023/08/05 02:40:54;;;;;;;10.40;6.38;;;21.30;99.90;;;;;;5094076;28;20023;-58
2023/08/05 02:43:21;;;;;;;10.10;6.95;;;21.30;99.90;;;;;;5094186;28;20060;-58
2023/08/05 02:45:56;;;;;;;12.10;6.35;;;21.40;99.90;;;;;;5076093;28;20496;-58
2023/08/05 02:48:24;;;;;;;8.43;5.93;;;21.40;99.90;;;;;;5075991;28;20123;-58
2023/08/05 02:50:51;;;;;;;9.20;7.10;;;21.40;99.90;;;;;;5094047;28;20099;-58
2023/08/05 02:53:17;;;;;;;12.20;7.50;;;21.40;99.90;;;;;;5094108;28;20373;-58
2023/08/05 02:55:43;;;;;;;8.48;6.45;;;21.40;99.90;;;;;;5094098;28;20031;-58
2023/08/05 02:58:10;;;;;;;8.68;5.97;;;21.30;99.90;;;;;;5075974;28;20025;-58
2023/08/05 03:00:36;;;;;;;11.23;6.85;;;21.30;99.90;;;;;;5093950;28;20032;-58
2023/08/05 03:03:02;;;;;;;14.05;7.38;;;21.20;99.90;;;;;;5075966;28;20028;-58
2023/08/05 03:05:28;;;;;;;11.45;6.55;;;21.10;99.90;;;;;;5093626;28;20078;-58
2023/08/05 03:07:55;;;;;;;10.65;7.88;;;21.20;99.90;;;;;;5078280;28;20489;-58
2023/08/05 03:10:21;;;;;;;10.75;7.35;;;21.10;99.90;;;;;;5097624;28;20063;-58
2023/08/05 03:12:47;;;;;;;14.18;7.85;;;21.10;99.90;;;;;;5079158;28;20031;-58
2023/08/05 03:15:13;;;;;;;13.07;8.50;;;21.20;99.90;;;;;;5097480;28;20733;-58
2023/08/05 03:17:40;;;;;;;11.15;7.57;;;21.20;99.90;;;;;;5079279;28;20109;-58
2023/08/05 03:20:22;;;;;;;12.02;8.50;;;21.10;99.90;;;;;;5062661;28;20039;-58
2023/08/05 03:22:49;;;;;;;11.68;8.32;;;21.00;99.90;;;;;;5079265;28;20118;-58
2023/08/05 03:25:15;;;;;;;12.73;8.32;;;21.00;99.90;;;;;;5097211;28;20027;-58
2023/08/05 03:27:41;;;;;;;11.25;8.55;;;21.00;99.90;;;;;;5079082;28;20035;-58
2023/08/05 03:30:07;;;;;;;14.30;8.40;;;20.90;99.90;;;;;;5097140;28;20111;-58
2023/08/05 03:32:35;;;;;;;9.75;7.53;;;20.80;99.90;;;;;;5078945;28;20024;-58
2023/08/05 03:35:01;;;;;;;16.98;7.40;;;20.80;99.90;;;;;;5078945;28;20038;-58
2023/08/05 03:37:27;;;;;;;10.32;6.53;;;20.80;99.90;;;;;;5097213;28;20019;-58
2023/08/05 03:39:53;;;;;;;9.48;6.97;;;20.80;99.90;;;;;;5096870;28;20546;-58
2023/08/05 03:42:19;;;;;;;9.95;6.78;;;20.80;99.90;;;;;;5078910;28;20023;-58
2023/08/05 03:44:45;;;;;;;9.38;6.43;;;20.80;99.90;;;;;;5078704;28;20032;-58
2023/08/05 03:47:10;;;;;;;8.32;6.18;;;20.80;99.90;;;;;;5078491;28;20639;-58
2023/08/05 03:49:39;;;;;;;9.63;6.53;;;20.70;99.90;;;;;;5078664;28;20064;-58
2023/08/05 03:52:06;;;;;;;8.65;6.15;;;20.70;99.90;;;;;;5078777;28;20378;-58
2023/08/05 03:54:32;;;;;;;8.02;6.45;;;20.80;99.90;;;;;;5078595;28;20028;-58
2023/08/05 03:56:59;;;;;;;12.35;6.80;;;20.80;99.90;;;;;;5096629;28;20377;-58
2023/08/05 03:59:25;;;;;;;10.02;6.93;;;20.70;99.90;;;;;;5096555;28;20478;-58
2023/08/05 04:01:52;;;;;;;11.95;7.55;;;20.60;99.90;;;;;;5096552;28;20031;-58
2023/08/05 04:04:18;;;;;;;12.57;7.07;;;20.60;99.90;;;;;;5073821;28;20040;-58
2023/08/05 04:06:45;;;;;;;13.95;8.15;;;20.50;99.90;;;;;;5058348;28;20082;-58
2023/08/05 04:09:12;;;;;;;13.43;7.90;;;20.40;99.90;;;;;;5076173;28;20036;-58
2023/08/05 04:11:38;;;;;;;13.30;7.88;;;20.40;99.90;;;;;;5075786;28;20393;-58
2023/08/05 04:14:04;;;;;;;13.45;8.35;;;20.40;99.90;;;;;;5058061;28;20094;-58
2023/08/05 04:16:30;;;;;;;11.70;7.03;;;20.50;99.90;;;;;;5057973;28;20036;-58
2023/08/05 04:18:58;;;;;;;14.20;8.20;;;20.70;99.90;;;;;;5056882;28;20064;-58
2023/08/05 04:21:28;;;;;;;17.95;9.02;;;20.70;99.90;;;;;;5058091;28;20175;-58
2023/08/05 04:23:58;;;;;;;13.23;6.68;;;20.70;99.90;;;;;;5075896;28;20029;-58
2023/08/05 04:26:24;;;;;;;17.05;8.73;;;20.60;99.90;;;;;;5075914;28;20131;-58
2023/08/05 04:28:50;;;;;;;13.00;6.78;;;20.70;99.90;;;;;;5075639;28;20094;-58
2023/08/05 04:31:16;;;;;;;13.38;8.00;;;20.90;99.90;;;;;;5076056;28;20024;-58
2023/08/05 04:33:42;;;;;;;14.60;7.75;;;20.90;99.90;;;;;;5075728;28;20024;-58
2023/08/05 04:36:08;;;;;;;13.23;7.95;;;20.90;99.90;;;;;;5075547;28;20048;-59
2023/08/05 04:38:34;;;;;;;18.65;8.75;;;20.90;99.90;;;;;;5075539;28;20532;-58
2023/08/05 04:41:00;;;;;;;12.25;8.00;;;21.20;99.90;;;;;;5075484;28;20460;-58
2023/08/05 04:43:26;;;;;;;14.35;8.23;;;21.30;99.90;;;;;;5075477;28;20035;-58
2023/08/05 04:45:54;;;;;;;13.45;7.72;;;21.40;99.90;;;;;;5075535;28;20031;-58
2023/08/05 04:48:20;;;;;;;14.20;7.97;;;21.50;99.90;;;;;;5075530;28;20104;-58
2023/08/05 04:50:46;;;;;;;16.60;8.98;;;21.40;99.90;;;;;;5075386;28;20269;-58
2023/08/05 04:53:15;;;;;;;21.50;9.55;;;21.40;99.90;;;;;;5075255;28;20027;-58
2023/08/05 04:55:41;;;;;;;14.68;8.95;;;21.50;99.90;;;;;;5075234;28;20085;-58
2023/08/05 04:58:08;;;;;;;12.07;8.52;;;21.70;99.90;;;;;;5075205;28;20052;-58
2023/08/05 05:00:34;;;;;;;17.17;9.32;;;21.60;99.90;;;;;;5075258;28;20024;-58
2023/08/05 05:03:00;;;;;;;17.20;9.57;;;21.70;99.90;;;;;;5075043;28;20032;-58
2023/08/05 05:05:26;;;;;;;13.65;9.40;;;21.80;99.90;;;;;;5084717;28;20397;-58
2023/08/05 05:07:52;;;;;;;16.52;9.82;;;22.00;99.90;;;;;;5095470;28;20040;-58
2023/08/05 05:10:18;;;;;;;15.18;10.13;;;22.20;99.90;;;;;;5095161;28;20039;-58
2023/08/05 05:12:44;;;;;;;27.85;12.40;;;22.40;99.90;;;;;;5095088;28;20023;-58
2023/08/05 05:15:10;;;;;;;18.55;11.15;;;22.40;99.90;;;;;;5095260;28;20035;-58
2023/08/05 05:17:36;;;;;;;20.23;11.32;;;22.60;99.90;;;;;;5095442;28;20035;-58
2023/08/05 05:20:06;;;;;;;16.30;11.10;;;22.60;99.90;;;;;;5095078;28;20024;-58
2023/08/05 05:22:33;;;;;;;16.85;11.32;;;22.60;99.90;;;;;;5095133;28;20118;-58
2023/08/05 05:24:59;;;;;;;15.38;10.52;;;22.50;99.90;;;;;;5094863;28;20114;-58
2023/08/05 05:27:25;;;;;;;15.07;10.68;;;22.70;99.90;;;;;;5095023;28;20055;-58
2023/08/05 05:29:51;;;;;;;17.92;11.02;;;22.80;99.90;;;;;;5094698;28;20032;-58
2023/08/05 05:32:17;;;;;;;14.85;9.77;;;22.70;99.90;;;;;;5094948;28;20617;-58
2023/08/05 05:34:43;;;;;;;15.48;11.25;;;22.90;99.90;;;;;;5095332;28;20059;-58
2023/08/05 05:37:09;;;;;;;12.90;10.15;;;22.90;99.90;;;;;;5094758;28;20031;-58
2023/08/05 05:39:35;;;;;;;15.25;9.93;;;23.00;99.90;;;;;;5094762;28;20085;-58
2023/08/05 05:42:00;;;;;;;12.95;9.07;;;23.10;99.90;;;;;;5094836;28;20084;-58
2023/08/05 05:44:27;;;;;;;12.52;9.95;;;23.10;99.90;;;;;;5094585;28;20038;-58
2023/08/05 05:46:54;;;;;;;12.98;9.77;;;23.10;99.90;;;;;;5094745;28;20042;-58
2023/08/05 05:49:20;;;;;;;12.27;9.90;;;23.10;99.90;;;;;;5094572;28;20047;-58
2023/08/05 05:51:47;;;;;;;14.75;10.27;;;23.20;99.90;;;;;;5094645;28;20036;-58
2023/08/05 05:54:13;;;;;;;13.75;9.85;;;23.30;99.90;;;;;;5094561;28;20474;-58
2023/08/05 05:56:39;;;;;;;15.05;10.73;;;23.30;99.90;;;;;;5094625;28;20017;-58
2023/08/05 05:59:05;;;;;;;21.13;14.48;;;23.20;99.90;;;;;;5094629;28;20023;-58
2023/08/05 06:01:31;;;;;;;14.13;10.40;;;23.00;99.90;;;;;;5094451;28;20028;-58
2023/08/05 06:03:58;;;;;;;17.27;11.93;;;22.70;99.90;;;;;;5094238;28;20039;-58
2023/08/05 06:06:24;;;;;;;15.88;10.50;;;22.50;99.90;;;;;;5094449;28;20062;-58
2023/08/05 06:08:49;;;;;;;16.27;11.85;;;22.50;99.90;;;;;;5094528;28;20039;-58
2023/08/05 06:11:16;;;;;;;18.30;11.23;;;22.50;99.90;;;;;;5094227;28;20032;-58
2023/08/05 06:13:42;;;;;;;14.65;10.57;;;22.70;99.90;;;;;;5094366;28;20016;-58
2023/08/05 06:16:08;;;;;;;18.45;11.40;;;22.70;99.90;;;;;;5094187;28;20039;-58
2023/08/05 06:18:33;;;;;;;19.23;11.65;;;22.80;99.90;;;;;;5094487;28;20060;-58
2023/08/05 06:21:00;;;;;;;14.48;10.90;;;22.90;99.90;;;;;;5094358;28;20107;-58
2023/08/05 06:23:26;;;;;;;15.25;11.60;;;23.00;99.90;;;;;;5094057;28;20465;-58
2023/08/05 06:25:51;;;;;;;21.25;13.65;;;23.00;99.90;;;;;;5094327;28;20024;-58
2023/08/05 06:28:17;;;;;;;18.65;12.85;;;23.00;99.90;;;;;;5094099;28;20542;-58
2023/08/05 06:30:47;;;;;;;22.90;13.23;;;23.10;99.90;;;;;;5094106;28;20111;-58
2023/08/05 06:33:13;;;;;;;19.00;12.15;;;23.20;99.90;;;;;;5094289;28;20359;-58
2023/08/05 06:35:40;;;;;;;21.98;12.23;;;23.10;99.90;;;;;;5094000;28;20026;-58
2023/08/05 06:38:06;;;;;;;18.00;12.18;;;23.20;99.90;;;;;;5094175;28;20453;-58
2023/08/05 06:40:32;;;;;;;16.98;11.98;;;23.20;99.90;;;;;;5094275;28;20035;-58
2023/08/05 06:42:58;;;;;;;17.10;11.50;;;23.20;99.90;;;;;;5096853;28;20103;-58
2023/08/05 06:45:24;;;;;;;21.13;11.35;;;23.30;99.90;;;;;;5098135;28;20031;-58
2023/08/05 06:47:50;;;;;;;17.38;11.25;;;23.30;99.90;;;;;;5098144;28;20028;-58
2023/08/05 06:50:16;;;;;;;20.08;12.00;;;23.20;99.90;;;;;;5097770;28;20051;-58
2023/08/05 06:52:42;;;;;;;17.25;11.50;;;23.10;99.90;;;;;;5097791;28;20166;-58
2023/08/05 06:55:08;;;;;;;19.33;11.85;;;23.10;99.90;;;;;;5097910;28;20027;-58
2023/08/05 06:57:34;;;;;;;16.25;11.07;;;23.10;99.90;;;;;;5097859;28;20028;-58
2023/08/05 07:00:01;;;;;;;16.98;11.73;;;23.10;99.90;;;;;;5097581;28;20102;-58
2023/08/05 07:02:26;;;;;;;18.42;11.55;;;23.00;99.90;;;;;;5097567;28;20036;-58
2023/08/05 07:04:53;;;;;;;20.48;12.23;;;23.00;99.90;;;;;;5097387;28;20065;-58
2023/08/05 07:07:19;;;;;;;23.10;11.98;;;23.00;99.90;;;;;;5097677;28;20377;-58
2023/08/05 07:09:46;;;;;;;28.75;12.60;;;23.00;99.90;;;;;;5097611;28;20362;-58
2023/08/05 07:12:12;;;;;;;23.67;12.05;;;23.10;99.90;;;;;;5097440;28;20106;-58
2023/08/05 07:14:38;;;;;;;27.90;13.43;;;23.20;99.90;;;;;;5097449;28;20024;-58
2023/08/05 07:17:05;;;;;;;35.45;13.25;;;23.20;99.90;;;;;;5097612;28;20027;-58
2023/08/05 07:19:31;;;;;;;43.10;13.02;;;23.20;99.90;;;;;;5097553;28;20052;-58
2023/08/05 07:21:56;;;;;;;30.52;14.25;;;23.10;99.90;;;;;;5097313;28;20055;-58
2023/08/05 07:24:23;;;;;;;24.05;14.35;;;23.20;99.90;;;;;;5097115;28;20059;-58
2023/08/05 07:26:48;;;;;;;18.83;12.68;;;23.30;99.90;;;;;;5097170;28;20385;-58
2023/08/05 07:29:14;;;;;;;22.58;12.63;;;23.30;99.90;;;;;;5097046;28;20077;-58
2023/08/05 07:31:40;;;;;;;26.70;15.25;;;23.30;99.90;;;;;;5097126;28;20027;-58
2023/08/05 07:34:08;;;;;;;20.25;13.02;;;23.30;99.90;;;;;;5096906;28;20183;-58
2023/08/05 07:36:34;;;;;;;23.80;14.30;;;23.40;99.90;;;;;;5097126;28;20131;-58
2023/08/05 07:39:06;;;;;;;24.75;15.55;;;23.50;99.90;;;;;;5096993;28;20085;-58
2023/08/05 07:41:32;;;;;;;24.90;14.30;;;23.50;99.90;;;;;;5097104;28;20028;-58
2023/08/05 07:43:58;;;;;;;24.30;14.57;;;23.60;99.90;;;;;;5096990;28;20024;-58
2023/08/05 07:46:31;;;;;;;26.25;15.85;;;23.70;99.90;;;;;;5096876;28;20440;-58
2023/08/05 07:48:59;;;;;;;39.22;22.60;;;23.70;99.90;;;;;;5096646;28;20098;-58
2023/08/05 07:51:26;;;;;;;29.67;17.13;;;23.70;99.90;;;;;;5096846;28;20115;-58
2023/08/05 07:53:53;;;;;;;29.98;18.30;;;23.70;99.90;;;;;;5096662;28;20454;-58
2023/08/05 07:56:19;;;;;;;32.45;18.30;;;23.70;99.90;;;;;;5096338;28;20028;-58
2023/08/05 07:58:46;;;;;;;29.73;18.15;;;23.70;99.90;;;;;;5096725;28;20024;-58
2023/08/05 08:01:17;;;;;;;35.38;20.45;;;23.70;99.90;;;;;;5096649;28;20035;-58
2023/08/05 08:03:43;;;;;;;32.28;18.33;;;23.60;99.90;;;;;;5096306;28;20031;-58
2023/08/05 08:06:10;;;;;;;32.50;18.30;;;23.70;99.90;;;;;;5096492;28;20119;-58
2023/08/05 08:08:36;;;;;;;44.83;18.02;;;23.70;99.90;;;;;;5096276;28;20107;-58
2023/08/05 08:11:02;;;;;;;31.75;18.45;;;23.80;99.90;;;;;;5096382;28;20418;-58
2023/08/05 08:13:27;;;;;;;28.70;17.88;;;23.80;99.90;;;;;;5096233;28;20080;-58
2023/08/05 08:15:53;;;;;;;29.70;17.65;;;23.80;99.90;;;;;;5096126;28;20032;-58
2023/08/05 08:18:19;;;;;;;24.65;16.80;;;23.80;99.90;;;;;;5096330;28;20454;-58
2023/08/05 08:20:52;;;;;;;28.48;17.67;;;23.80;99.90;;;;;;5096211;28;20111;-58
2023/08/05 08:23:18;;;;;;;28.02;16.80;;;23.80;99.90;;;;;;5096056;28;20027;-58
2023/08/05 08:25:45;;;;;;;28.52;16.67;;;23.80;99.90;;;;;;5096159;28;20385;-58
2023/08/05 08:28:11;;;;;;;25.67;16.70;;;23.70;99.90;;;;;;5096045;28;20379;-58
2023/08/05 08:30:37;;;;;;;28.52;18.13;;;23.60;99.90;;;;;;5095966;28;20036;-58
2023/08/05 08:33:03;;;;;;;27.52;16.65;;;23.60;99.90;;;;;;5096043;28;20545;-58
2023/08/05 08:35:29;;;;;;;26.77;16.75;;;23.60;99.90;;;;;;5095818;28;20515;-58
2023/08/05 08:37:55;;;;;;;37.60;22.02;;;23.60;99.90;;;;;;5095886;28;20452;-58
2023/08/05 08:40:22;;;;;;;38.40;20.60;;;23.70;99.90;;;;;;5096013;28;20024;-58
2023/08/05 08:42:50;;;;;;;31.38;20.23;;;23.60;99.90;;;;;;5095868;28;20458;-58
2023/08/05 08:45:20;;;;;;;30.38;19.25;;;23.60;99.90;;;;;;5095668;28;20109;-58
2023/08/05 08:47:47;;;;;;;38.33;19.55;;;23.60;99.90;;;;;;5095647;28;20081;-58
2023/08/05 08:50:15;;;;;;;41.30;19.95;;;23.60;99.90;;;;;;5095407;28;20461;-58
2023/08/05 08:52:42;;;;;;;33.58;20.50;;;23.60;99.90;;;;;;5095512;28;20409;-58
2023/08/05 08:55:10;;;;;;;32.88;21.45;;;23.60;99.90;;;;;;5095555;28;20035;-58
2023/08/05 08:57:35;;;;;;;31.52;21.67;;;23.50;99.90;;;;;;5095427;28;20093;-58
2023/08/05 09:00:02;;;;;;;41.72;23.95;;;23.60;99.90;;;;;;5095675;28;20099;-58
2023/08/05 09:02:28;;;;;;;34.25;21.90;;;23.60;99.90;;;;;;5095409;28;20024;-58
2023/08/05 09:04:55;;;;;;;35.42;23.25;;;23.50;99.90;;;;;;5094614;28;20078;-58
2023/08/05 09:07:26;;;;;;;40.55;24.88;;;23.40;99.90;;;;;;5095352;28;20116;-58
2023/08/05 09:09:53;;;;;;;41.78;23.67;;;23.50;99.90;;;;;;5095130;28;20469;-58
2023/08/05 09:12:19;;;;;;;42.15;24.92;;;23.40;99.90;;;;;;5095058;28;20084;-58
2023/08/05 09:14:53;;;;;;;37.90;24.75;;;23.30;99.90;;;;;;5095070;28;20020;-58
2023/08/05 09:17:18;;;;;;;41.20;25.58;;;23.30;99.90;;;;;;5095030;28;20103;-58
2023/08/05 09:19:44;;;;;;;41.80;26.00;;;23.20;99.90;;;;;;5094905;28;20074;-58
2023/08/05 09:22:10;;;;;;;41.30;24.88;;;23.30;99.90;;;;;;5095016;28;20035;-58
2023/08/05 09:24:36;;;;;;;38.42;24.13;;;23.30;99.90;;;;;;5094964;28;20032;-58
2023/08/05 09:27:02;;;;;;;37.60;24.08;;;23.30;99.90;;;;;;5095096;28;20031;-58
2023/08/05 09:29:28;;;;;;;37.25;23.90;;;23.40;99.90;;;;;;5094877;28;20031;-58
2023/08/05 09:31:54;;;;;;;41.90;26.23;;;23.50;99.90;;;;;;5094908;28;20038;-58
2023/08/05 09:34:20;;;;;;;44.10;26.15;;;23.40;99.90;;;;;;5094881;28;20588;-58
2023/08/05 09:36:46;;;;;;;43.15;26.77;;;23.30;99.90;;;;;;5094717;28;20453;-58
2023/08/05 09:39:16;;;;;;;47.20;27.48;;;23.40;99.90;;;;;;5094680;28;20036;-58
2023/08/05 09:41:51;;;;;;;46.72;26.83;;;23.40;99.90;;;;;;5094729;28;20020;-58
2023/08/05 09:44:18;;;;;;;38.30;24.50;;;23.30;99.90;;;;;;5094662;28;20078;-58
2023/08/05 09:46:46;;;;;;;53.20;26.50;;;23.30;99.90;;;;;;5094573;28;20107;-58
2023/08/05 09:49:17;;;;;;;46.53;25.90;;;23.40;99.90;;;;;;5094465;28;20028;-58
2023/08/05 09:51:45;;;;;;;39.17;23.80;;;23.40;99.90;;;;;;5094484;28;20110;-58
2023/08/05 09:54:16;;;;;;;45.30;25.67;;;23.40;99.90;;;;;;5094484;28;20362;-58
2023/08/05 09:56:43;;;;;;;42.28;24.65;;;23.40;99.90;;;;;;5094725;28;20056;-58
2023/08/05 09:59:12;;;;;;;42.22;26.13;;;23.40;99.90;;;;;;5094418;28;20028;-58
2023/08/05 10:01:40;;;;;;;50.63;24.33;;;23.50;99.90;;;;;;5094348;28;20123;-58
2023/08/05 10:04:09;;;;;;;51.15;26.33;;;23.60;99.90;;;;;;5094316;28;20039;-58
2023/08/05 10:06:39;;;;;;;56.85;26.58;;;23.20;99.90;;;;;;5094571;28;20020;-58
2023/08/05 10:09:07;;;;;;;39.87;23.90;;;23.30;99.90;;;;;;5094695;28;20039;-58
2023/08/05 10:11:37;;;;;;;44.95;23.50;;;23.50;99.90;;;;;;5094187;28;20063;-59
2023/08/05 10:14:03;;;;;;;42.17;24.85;;;23.50;99.90;;;;;;5094421;28;20020;-58
2023/08/05 10:16:30;;;;;;;39.25;23.58;;;23.60;99.90;;;;;;5094710;28;20183;-58
2023/08/05 10:18:56;;;;;;;36.47;22.45;;;23.70;99.90;;;;;;5098273;28;20032;-58
2023/08/05 10:21:40;;;;;;;41.25;25.85;;;23.90;99.90;;;;;;5098485;28;20489;-58
2023/08/05 10:24:05;;;;;;;43.80;26.35;;;23.90;99.90;;;;;;5098462;28;20063;-58
2023/08/05 10:26:42;;;;;;;41.45;26.40;;;23.80;99.90;;;;;;5098387;28;20078;-58
2023/08/05 10:29:27;;;;;;;39.92;26.75;;;23.90;99.90;;;;;;5098127;28;20381;-58
2023/08/05 10:32:10;;;;;;;39.60;26.35;;;23.90;99.90;;;;;;5098368;28;20024;-58
2023/08/05 10:34:36;;;;;;;35.22;23.85;;;24.00;99.90;;;;;;5098193;28;20024;-58
2023/08/05 10:37:03;;;;;;;33.47;21.83;;;24.00;99.90;;;;;;5098131;28;20496;-58
2023/08/05 10:39:41;;;;;;;29.85;20.65;;;24.10;99.90;;;;;;5098050;28;20035;-58
2023/08/05 10:42:29;;;;;;;28.27;20.80;;;23.90;99.90;;;;;;5098139;28;20114;-58
2023/08/05 10:44:58;;;;;;;27.50;17.67;;;23.90;99.90;;;;;;5097985;28;20119;-58
2023/08/05 10:47:24;;;;;;;25.27;17.60;;;23.90;99.90;;;;;;5097963;28;20055;-58
2023/08/05 10:49:57;;;;;;;31.42;17.58;;;23.90;99.90;;;;;;5097752;28;20020;-58
2023/08/05 10:52:23;;;;;;;28.77;17.92;;;23.80;99.90;;;;;;5098198;28;20028;-58
2023/08/05 10:54:51;;;;;;;23.38;15.40;;;23.70;99.90;;;;;;5097947;28;20024;-58
2023/08/05 10:57:38;;;;;;;24.33;14.73;;;23.60;99.90;;;;;;5097915;28;20393;-58
2023/08/05 11:00:06;;;;;;;19.55;14.18;;;23.50;99.90;;;;;;5097733;28;20030;-58
2023/08/05 11:02:32;;;;;;;18.10;12.82;;;23.50;99.90;;;;;;5097740;28;20036;-58
2023/08/05 11:05:08;;;;;;;21.70;13.05;;;23.60;99.90;;;;;;5097564;28;20452;-58
2023/08/05 11:07:42;;;;;;;20.67;13.45;;;23.50;99.90;;;;;;5097696;28;20024;-58
2023/08/05 11:10:09;;;;;;;17.33;12.32;;;23.50;99.90;;;;;;5097611;28;20032;-59
2023/08/05 11:12:39;;;;;;;15.27;11.82;;;23.50;99.90;;;;;;5097502;28;20523;-58
2023/08/05 11:15:06;;;;;;;17.20;11.90;;;23.50;99.90;;;;;;5097346;28;20021;-58
2023/08/05 11:17:32;;;;;;;20.17;12.45;;;23.40;99.90;;;;;;5097620;28;20346;-58
2023/08/05 11:19:58;;;;;;;13.80;9.98;;;23.40;99.90;;;;;;5097502;28;20111;-58
2023/08/05 11:22:28;;;;;;;16.80;11.23;;;23.40;99.90;;;;;;5097601;28;20032;-58
2023/08/05 11:24:56;;;;;;;18.23;11.27;;;23.30;99.90;;;;;;5097311;28;20490;-58
2023/08/05 11:27:36;;;;;;;21.90;12.07;;;23.30;99.90;;;;;;5096522;28;20032;-58
2023/08/05 11:30:16;;;;;;;19.30;11.45;;;23.40;99.90;;;;;;5097090;28;20063;-58
2023/08/05 11:32:56;;;;;;;20.40;13.05;;;23.30;99.90;;;;;;5097161;28;20032;-59
2023/08/05 11:35:25;;;;;;;;;;;23.30;99.90;;;;;;5097398;28;20032;-58
2023/08/05 11:37:51;;;;;;;18.30;10.82;;;23.20;99.90;;;;;;5097041;28;19908;-58
2023/08/05 11:40:17;;;;;;;16.35;11.95;;;23.00;99.90;;;;;;5097197;28;20473;-58
2023/08/05 11:42:43;;;;;;;18.77;13.15;;;22.90;99.90;;;;;;5096917;28;20028;-58
2023/08/05 11:45:12;;;;;;;21.48;12.73;;;22.90;99.90;;;;;;5096878;28;20461;-58
2023/08/05 11:47:39;;;;;;;20.30;13.68;;;22.80;99.90;;;;;;5096788;28;20025;-58
2023/08/05 11:50:06;;;;;;;20.52;13.80;;;22.90;99.90;;;;;;5096720;28;20031;-59
2023/08/05 11:52:32;;;;;;;19.95;13.43;;;23.00;99.90;;;;;;5096680;28;20052;-58
2023/08/05 11:55:03;;;;;;;23.88;14.73;;;23.00;99.90;;;;;;5096633;28;20069;-58
2023/08/05 11:57:29;;;;;;;23.08;14.45;;;23.00;99.90;;;;;;5096793;28;20358;-58
2023/08/05 11:59:55;;;;;;;20.27;13.23;;;23.00;99.90;;;;;;5096474;28;20042;-58
2023/08/05 12:02:24;;;;;;;24.90;13.45;;;23.00;99.90;;;;;;5096617;28;20107;-58
2023/08/05 12:04:55;;;;;;;20.33;12.27;;;22.90;99.90;;;;;;5096156;28;20052;-58
2023/08/05 12:07:22;;;;;;;18.42;12.10;;;22.80;99.90;;;;;;5096606;28;20044;-59
2023/08/05 12:10:10;;;;;;;19.70;12.88;;;22.70;99.90;;;;;;5096347;28;20032;-58
2023/08/05 12:12:37;;;;;;;25.27;12.82;;;22.70;99.90;;;;;;5096232;28;20809;-58
2023/08/05 12:15:10;;;;;;;20.25;12.57;;;22.80;99.90;;;;;;5096482;28;20477;-58
2023/08/05 12:17:37;;;;;;;21.45;12.73;;;22.80;99.90;;;;;;5096253;28;20039;-58
2023/08/05 12:20:09;;;;;;;22.35;11.75;;;22.80;99.90;;;;;;5096345;28;20031;-58
2023/08/05 12:22:35;;;;;;;17.15;11.35;;;22.70;99.90;;;;;;5096213;28;20051;-58
2023/08/05 12:25:01;;;;;;;17.88;11.52;;;22.80;99.90;;;;;;5095824;28;20028;-58
2023/08/05 12:27:27;;;;;;;16.08;11.73;;;22.90;99.90;;;;;;5095905;28;20178;-58
2023/08/05 12:29:53;;;;;;;22.50;12.20;;;22.80;99.90;;;;;;5095869;28;20028;-58
2023/08/05 12:32:18;;;;;;;20.77;11.73;;;22.80;99.90;;;;;;5096017;28;20031;-58
2023/08/05 12:34:44;;;;;;;19.75;11.20;;;22.70;99.90;;;;;;5096002;28;20024;-58